Portada
METAR-TAF:

METAR-TAF

Aeropuertos :

Mesina, Italia

latitud: 38-12N, longitud: 015-33E, altitud: 59 m

Observación

El informe se hizo hace 1 hora y 18 minutos, a las 10:55 UTC
Viento 4 kt del suroeste
Temperatura 15°C
Humedad 36%
Presión 1011 hPa
Visibilidad 10 km o más
Escasas nubes a una altura de 3000 ft

METAR: LICF 161055Z 22004KT 9999 FEW030 15/00 Q1011 RMK BKN SCT080 BKN200 QUK 2 QUL 1 SW VIS MAR 20 KM MON E CLD SCT NC MON W LIB NC VIS MIN 9999

Hora: 14:13 (12:13 UTC)


TAF: falta

Observaciones y pronósticos meteorológicos de más de 4000 aeropuertos (mensajes METAR y TAF).

Los puntos amarillos y rojos representan las estaciones disponibles.

Ponga el ratón en el punto deseado para ver el nombre de la estación.

Haga clic para ver las observaciones y los pronósticos meteorológicos.

Para cambiar el mapa : haga clic en los botones verdes con una cruz de color negro para hacer un zoom, en el botón verde con un guión para alejar o en las flechas verdes para mapas adyacentes.


METAR-TAF: